sensor_id;sensor_type;location;lat;lon;timestamp;pressure;altitude;pressure_sealevel;temperature;humidity
33404;BME280;19751;40.274;18.268;2023-02-20T00:00:24;101902.19;;;12.64;100.00
33404;BME280;19751;40.274;18.268;2023-02-20T00:02:50;101900.50;;;12.63;100.00
33404;BME280;19751;40.274;18.268;2023-02-20T00:05:16;101899.34;;;12.57;100.00
33404;BME280;19751;40.274;18.268;2023-02-20T00:07:45;101894.28;;;12.54;100.00
33404;BME280;19751;40.274;18.268;2023-02-20T00:10:11;101887.69;;;12.57;100.00
33404;BME280;19751;40.274;18.268;2023-02-20T00:12:36;101886.34;;;12.61;100.00
33404;BME280;19751;40.274;18.268;2023-02-20T00:15:02;101886.34;;;12.61;100.00
33404;BME280;19751;40.274;18.268;2023-02-20T00:17:28;101880.25;;;12.59;100.00
33404;BME280;19751;40.274;18.268;2023-02-20T00:19:54;101889.38;;;12.58;100.00
33404;BME280;19751;40.274;18.268;2023-02-20T00:22:24;101878.56;;;12.58;100.00
33404;BME280;19751;40.274;18.268;2023-02-20T00:24:50;101883.13;;;12.57;100.00
33404;BME280;19751;40.274;18.268;2023-02-20T00:27:16;101884.81;;;12.58;100.00
33404;BME280;19751;40.274;18.268;2023-02-20T00:29:44;101884.13;;;12.56;100.00
33404;BME280;19751;40.274;18.268;2023-02-20T00:32:11;101895.81;;;12.57;100.00
33404;BME280;19751;40.274;18.268;2023-02-20T00:34:37;101898.84;;;12.54;100.00
33404;BME280;19751;40.274;18.268;2023-02-20T00:37:02;101896.28;;;12.52;100.00
33404;BME280;19751;40.274;18.268;2023-02-20T00:39:27;101900.88;;;12.52;100.00
33404;BME280;19751;40.274;18.268;2023-02-20T00:41:53;101900.72;;;12.53;100.00
33404;BME280;19751;40.274;18.268;2023-02-20T00:44:20;101907.44;;;12.57;100.00
33404;BME280;19751;40.274;18.268;2023-02-20T00:46:46;101905.91;;;12.63;100.00
33404;BME280;19751;40.274;18.268;2023-02-20T00:49:12;101897.97;;;12.61;100.00
33404;BME280;19751;40.274;18.268;2023-02-20T00:51:37;101888.53;;;12.57;100.00
33404;BME280;19751;40.274;18.268;2023-02-20T00:54:03;101893.09;;;12.57;100.00
33404;BME280;19751;40.274;18.268;2023-02-20T00:56:28;101893.09;;;12.57;100.00
33404;BME280;19751;40.274;18.268;2023-02-20T00:58:54;101889.91;;;12.53;100.00
33404;BME280;19751;40.274;18.268;2023-02-20T01:01:20;101889.91;;;12.53;100.00
33404;BME280;19751;40.274;18.268;2023-02-20T01:03:46;101888.53;;;12.57;100.00
33404;BME280;19751;40.274;18.268;2023-02-20T01:06:12;101890.41;;;12.57;100.00
33404;BME280;19751;40.274;18.268;2023-02-20T01:08:37;101898.31;;;12.58;100.00
33404;BME280;19751;40.274;18.268;2023-02-20T01:11:03;101892.06;;;12.58;100.00
33404;BME280;19751;40.274;18.268;2023-02-20T01:13:28;101900.19;;;12.58;100.00
33404;BME280;19751;40.274;18.268;2023-02-20T01:15:54;101896.47;;;12.59;100.00
33404;BME280;19751;40.274;18.268;2023-02-20T01:18:19;101901.38;;;12.55;100.00
33404;BME280;19751;40.274;18.268;2023-02-20T01:20:45;101902.06;;;12.49;100.00
33404;BME280;19751;40.274;18.268;2023-02-20T01:23:10;101889.63;;;12.40;100.00
33404;BME280;19751;40.274;18.268;2023-02-20T01:25:36;101881.88;;;12.29;100.00
33404;BME280;19751;40.274;18.268;2023-02-20T01:28:01;101883.91;;;12.18;100.00
33404;BME280;19751;40.274;18.268;2023-02-20T01:30:27;101889.66;;;12.15;100.00
33404;BME280;19751;40.274;18.268;2023-02-20T01:32:52;101900.47;;;12.15;100.00
33404;BME280;19751;40.274;18.268;2023-02-20T01:35:18;101892.84;;;12.19;100.00
33404;BME280;19751;40.274;18.268;2023-02-20T01:37:43;101890.31;;;12.17;100.00
33404;BME280;19751;40.274;18.268;2023-02-20T01:40:15;101890.16;;;12.11;100.00
33404;BME280;19751;40.274;18.268;2023-02-20T01:42:41;101889.84;;;12.06;100.00
33404;BME280;19751;40.274;18.268;2023-02-20T01:45:30;101888.66;;;12.08;100.00
33404;BME280;19751;40.274;18.268;2023-02-20T01:47:57;101887.44;;;12.11;100.00
33404;BME280;19751;40.274;18.268;2023-02-20T01:50:42;101888.16;;;12.05;100.00
33404;BME280;19751;40.274;18.268;2023-02-20T01:53:16;101888.34;;;12.03;100.00
33404;BME280;19751;40.274;18.268;2023-02-20T01:55:43;101882.75;;;12.05;100.00
33404;BME280;19751;40.274;18.268;2023-02-20T01:58:14;101891.69;;;12.05;100.00
33404;BME280;19751;40.274;18.268;2023-02-20T02:00:41;101887.50;;;12.03;100.00
33404;BME280;19751;40.274;18.268;2023-02-20T02:03:10;101889.31;;;12.02;100.00
33404;BME280;19751;40.274;18.268;2023-02-20T02:05:39;101883.28;;;12.00;100.00
33404;BME280;19751;40.274;18.268;2023-02-20T02:08:07;101894.91;;;12.01;100.00
33404;BME280;19751;40.274;18.268;2023-02-20T02:11:27;101895.75;;;12.01;100.00
33404;BME280;19751;40.274;18.268;2023-02-20T02:13:30;101900.66;;;11.89;100.00
33404;BME280;19751;40.274;18.268;2023-02-20T02:16:16;101896.06;;;11.82;100.00
33404;BME280;19751;40.274;18.268;2023-02-20T02:24:38;101905.88;;;11.75;100.00
33404;BME280;19751;40.274;18.268;2023-02-20T02:44:12;101914.28;;;11.55;100.00
33404;BME280;19751;40.274;18.268;2023-02-20T02:49:30;101931.81;;;11.51;100.00
33404;BME280;19751;40.274;18.268;2023-02-20T02:51:59;101926.59;;;11.50;100.00
33404;BME280;19751;40.274;18.268;2023-02-20T02:54:26;101922.38;;;11.47;100.00
33404;BME280;19751;40.274;18.268;2023-02-20T02:57:16;101924.41;;;11.45;100.00
33404;BME280;19751;40.274;18.268;2023-02-20T02:59:39;101932.66;;;11.43;100.00
33404;BME280;19751;40.274;18.268;2023-02-20T03:02:08;101928.25;;;11.42;100.00
33404;BME280;19751;40.274;18.268;2023-02-20T03:04:37;101927.44;;;11.42;100.00
33404;BME280;19751;40.274;18.268;2023-02-20T03:07:09;101923.88;;;11.41;100.00
33404;BME280;19751;40.274;18.268;2023-02-20T03:09:39;101936.34;;;11.42;100.00
33404;BME280;19751;40.274;18.268;2023-02-20T03:12:08;101934.16;;;11.38;100.00
33404;BME280;19751;40.274;18.268;2023-02-20T03:14:41;101940.06;;;11.33;100.00
33404;BME280;19751;40.274;18.268;2023-02-20T03:17:34;101942.72;;;11.25;100.00
33404;BME280;19751;40.274;18.268;2023-02-20T03:20:09;101942.03;;;11.23;100.00
33404;BME280;19751;40.274;18.268;2023-02-20T03:22:42;101938.50;;;11.23;100.00
33404;BME280;19751;40.274;18.268;2023-02-20T03:25:16;101943.75;;;11.24;100.00
33404;BME280;19751;40.274;18.268;2023-02-20T03:30:26;101942.22;;;11.22;100.00
33404;BME280;19751;40.274;18.268;2023-02-20T03:33:03;101950.97;;;11.24;100.00
33404;BME280;19751;40.274;18.268;2023-02-20T03:35:48;101955.69;;;11.22;100.00
33404;BME280;19751;40.274;18.268;2023-02-20T03:38:36;101955.69;;;11.22;100.00
33404;BME280;19751;40.274;18.268;2023-02-20T03:41:22;101959.22;;;11.22;100.00
33404;BME280;19751;40.274;18.268;2023-02-20T03:44:09;101960.25;;;11.21;100.00
33404;BME280;19751;40.274;18.268;2023-02-20T03:46:38;101967.66;;;11.19;100.00
33404;BME280;19751;40.274;18.268;2023-02-20T03:49:11;101968.50;;;11.19;100.00
33404;BME280;19751;40.274;18.268;2023-02-20T03:51:38;101961.59;;;11.17;100.00
33404;BME280;19751;40.274;18.268;2023-02-20T03:54:24;101963.59;;;11.15;100.00
33404;BME280;19751;40.274;18.268;2023-02-20T03:56:54;101970.00;;;11.14;100.00
33404;BME280;19751;40.274;18.268;2023-02-20T03:59:25;101968.84;;;11.16;100.00
33404;BME280;19751;40.274;18.268;2023-02-20T04:02:08;101971.53;;;11.16;100.00
33404;BME280;19751;40.274;18.268;2023-02-20T04:04:43;101977.06;;;11.15;100.00
33404;BME280;19751;40.274;18.268;2023-02-20T04:07:15;101971.16;;;11.11;100.00
33404;BME280;19751;40.274;18.268;2023-02-20T04:09:44;101975.56;;;11.12;100.00
33404;BME280;19751;40.274;18.268;2023-02-20T04:12:18;101979.41;;;11.10;100.00
33404;BME280;19751;40.274;18.268;2023-02-20T04:14:48;101976.53;;;11.11;100.00
33404;BME280;19751;40.274;18.268;2023-02-20T04:17:20;101985.50;;;11.12;100.00
33404;BME280;19751;40.274;18.268;2023-02-20T04:19:46;101993.59;;;11.12;100.00
33404;BME280;19751;40.274;18.268;2023-02-20T04:22:17;101986.50;;;11.11;100.00
33404;BME280;19751;40.274;18.268;2023-02-20T04:24:59;101990.38;;;11.08;100.00
33404;BME280;19751;40.274;18.268;2023-02-20T04:27:26;101997.63;;;11.08;100.00
33404;BME280;19751;40.274;18.268;2023-02-20T04:29:52;102006.69;;;11.07;100.00
33404;BME280;19751;40.274;18.268;2023-02-20T04:32:18;102002.50;;;11.04;100.00
33404;BME280;19751;40.274;18.268;2023-02-20T04:34:44;101999.09;;;11.02;100.00
33404;BME280;19751;40.274;18.268;2023-02-20T04:37:14;102000.28;;;11.00;100.00
33404;BME280;19751;40.274;18.268;2023-02-20T04:39:39;101999.22;;;10.92;100.00
33404;BME280;19751;40.274;18.268;2023-02-20T04:42:05;101988.09;;;10.87;100.00
33404;BME280;19751;40.274;18.268;2023-02-20T04:44:31;101983.81;;;10.77;100.00
33404;BME280;19751;40.274;18.268;2023-02-20T04:46:57;101991.53;;;10.72;100.00
33404;BME280;19751;40.274;18.268;2023-02-20T04:49:23;101994.53;;;10.68;100.00
33404;BME280;19751;40.274;18.268;2023-02-20T04:51:49;102002.09;;;10.65;100.00
33404;BME280;19751;40.274;18.268;2023-02-20T04:54:14;101996.09;;;10.71;100.00
33404;BME280;19751;40.274;18.268;2023-02-20T04:56:40;102001.16;;;10.74;100.00
33404;BME280;19751;40.274;18.268;2023-02-20T04:59:05;102001.84;;;10.76;100.00
33404;BME280;19751;40.274;18.268;2023-02-20T05:01:31;102009.63;;;10.79;100.00
33404;BME280;19751;40.274;18.268;2023-02-20T05:03:56;102014.66;;;10.82;100.00
33404;BME280;19751;40.274;18.268;2023-02-20T05:06:22;102017.03;;;10.85;100.00
33404;BME280;19751;40.274;18.268;2023-02-20T05:08:48;102015.19;;;10.86;100.00
33404;BME280;19751;40.274;18.268;2023-02-20T05:11:13;102017.88;;;10.86;100.00
33404;BME280;19751;40.274;18.268;2023-02-20T05:13:39;102017.84;;;10.78;100.00
33404;BME280;19751;40.274;18.268;2023-02-20T05:16:04;102027.06;;;10.67;100.00
33404;BME280;19751;40.274;18.268;2023-02-20T05:18:30;102018.91;;;10.59;100.00
33404;BME280;19751;40.274;18.268;2023-02-20T05:20:56;102031.16;;;10.53;100.00
33404;BME280;19751;40.274;18.268;2023-02-20T05:23:40;102026.72;;;10.44;100.00
33404;BME280;19751;40.274;18.268;2023-02-20T05:26:10;102028.88;;;10.40;100.00
33404;BME280;19751;40.274;18.268;2023-02-20T05:28:35;102029.28;;;10.45;100.00
33404;BME280;19751;40.274;18.268;2023-02-20T05:31:03;102035.03;;;10.51;100.00
33404;BME280;19751;40.274;18.268;2023-02-20T05:33:28;102039.41;;;10.52;100.00
33404;BME280;19751;40.274;18.268;2023-02-20T05:35:53;102026.28;;;10.57;100.00
33404;BME280;19751;40.274;18.268;2023-02-20T05:38:19;102033.06;;;10.61;100.00
33404;BME280;19751;40.274;18.268;2023-02-20T05:40:44;102038.13;;;10.64;100.00
33404;BME280;19751;40.274;18.268;2023-02-20T05:43:10;102036.47;;;10.63;100.00
33404;BME280;19751;40.274;18.268;2023-02-20T05:45:35;102037.78;;;10.59;100.00
33404;BME280;19751;40.274;18.268;2023-02-20T05:48:01;102032.69;;;10.56;100.00
33404;BME280;19751;40.274;18.268;2023-02-20T05:50:26;102037.41;;;10.54;100.00
33404;BME280;19751;40.274;18.268;2023-02-20T05:52:52;102030.16;;;10.54;100.00
33404;BME280;19751;40.274;18.268;2023-02-20T05:55:17;102039.09;;;10.55;100.00
33404;BME280;19751;40.274;18.268;2023-02-20T05:57:43;102040.41;;;10.51;100.00
33404;BME280;19751;40.274;18.268;2023-02-20T06:00:09;102038.03;;;10.48;100.00
33404;BME280;19751;40.274;18.268;2023-02-20T06:02:35;102036.16;;;10.48;100.00
33404;BME280;19751;40.274;18.268;2023-02-20T06:05:00;102038.56;;;10.51;100.00
33404;BME280;19751;40.274;18.268;2023-02-20T06:07:26;102040.09;;;10.54;100.00
33404;BME280;19751;40.274;18.268;2023-02-20T06:09:51;102045.00;;;10.58;100.00
33404;BME280;19751;40.274;18.268;2023-02-20T06:12:16;102041.00;;;10.62;100.00
33404;BME280;19751;40.274;18.268;2023-02-20T06:14:42;102047.06;;;10.64;100.00
33404;BME280;19751;40.274;18.268;2023-02-20T06:17:08;102054.31;;;10.64;100.00
33404;BME280;19751;40.274;18.268;2023-02-20T06:19:33;102055.69;;;10.68;100.00
33404;BME280;19751;40.274;18.268;2023-02-20T06:21:59;102055.19;;;10.73;100.00
33404;BME280;19751;40.274;18.268;2023-02-20T06:24:25;102060.13;;;10.77;100.00
33404;BME280;19751;40.274;18.268;2023-02-20T06:26:50;102061.84;;;10.86;100.00
33404;BME280;19751;40.274;18.268;2023-02-20T06:29:17;102068.31;;;10.93;100.00
33404;BME280;19751;40.274;18.268;2023-02-20T06:31:43;102064.28;;;10.98;100.00
33404;BME280;19751;40.274;18.268;2023-02-20T06:34:09;102074.75;;;11.01;100.00
33404;BME280;19751;40.274;18.268;2023-02-20T06:36:37;102088.91;;;11.03;100.00
33404;BME280;19751;40.274;18.268;2023-02-20T06:39:04;102086.06;;;11.04;100.00
33404;BME280;19751;40.274;18.268;2023-02-20T06:41:30;102086.59;;;11.08;100.00
33404;BME280;19751;40.274;18.268;2023-02-20T06:43:55;102092.97;;;11.07;100.00
33404;BME280;19751;40.274;18.268;2023-02-20T06:46:22;102096.56;;;11.07;100.00
33404;BME280;19751;40.274;18.268;2023-02-20T06:48:51;102090.66;;;11.12;100.00
33404;BME280;19751;40.274;18.268;2023-02-20T06:51:19;102093.72;;;11.17;100.00
33404;BME280;19751;40.274;18.268;2023-02-20T06:53:45;102096.25;;;11.18;100.00
33404;BME280;19751;40.274;18.268;2023-02-20T06:56:15;102094.09;;;11.22;100.00
33404;BME280;19751;40.274;18.268;2023-02-20T06:58:45;102098.63;;;11.22;100.00
33404;BME280;19751;40.274;18.268;2023-02-20T07:01:11;102103.53;;;11.26;100.00
33404;BME280;19751;40.274;18.268;2023-02-20T07:03:36;102112.34;;;11.28;100.00
33404;BME280;19751;40.274;18.268;2023-02-20T07:06:02;102102.38;;;11.29;100.00
33404;BME280;19751;40.274;18.268;2023-02-20T07:08:27;102113.38;;;11.35;100.00
33404;BME280;19751;40.274;18.268;2023-02-20T07:10:52;102111.72;;;11.42;100.00
33404;BME280;19751;40.274;18.268;2023-02-20T07:13:21;102118.47;;;11.47;100.00
33404;BME280;19751;40.274;18.268;2023-02-20T07:15:47;102117.69;;;11.54;100.00
33404;BME280;19751;40.274;18.268;2023-02-20T07:18:13;102116.19;;;11.60;100.00
33404;BME280;19751;40.274;18.268;2023-02-20T07:20:39;102123.63;;;11.66;100.00
33404;BME280;19751;40.274;18.268;2023-02-20T07:23:04;102123.16;;;11.70;100.00
33404;BME280;19751;40.274;18.268;2023-02-20T07:25:29;102123.66;;;11.74;100.00
33404;BME280;19751;40.274;18.268;2023-02-20T07:27:59;102133.44;;;11.75;100.00
33404;BME280;19751;40.274;18.268;2023-02-20T07:30:24;102129.56;;;11.78;100.00
33404;BME280;19751;40.274;18.268;2023-02-20T07:32:50;102132.66;;;11.83;100.00
33404;BME280;19751;40.274;18.268;2023-02-20T07:35:16;102134.88;;;11.87;100.00
33404;BME280;19751;40.274;18.268;2023-02-20T07:37:41;102125.13;;;11.94;100.00
33404;BME280;19751;40.274;18.268;2023-02-20T07:40:08;102121.56;;;12.02;100.00
33404;BME280;19751;40.274;18.268;2023-02-20T07:42:33;102129.69;;;12.10;100.00
33404;BME280;19751;40.274;18.268;2023-02-20T07:44:59;102129.88;;;12.17;100.00
33404;BME280;19751;40.274;18.268;2023-02-20T07:47:24;102122.81;;;12.24;100.00
33404;BME280;19751;40.274;18.268;2023-02-20T07:49:50;102131.78;;;12.33;100.00
33404;BME280;19751;40.274;18.268;2023-02-20T07:52:15;102131.09;;;12.39;100.00
33404;BME280;19751;40.274;18.268;2023-02-20T07:54:42;102135.97;;;12.43;100.00
33404;BME280;19751;40.274;18.268;2023-02-20T07:57:07;102135.66;;;12.47;100.00
33404;BME280;19751;40.274;18.268;2023-02-20T07:59:33;102136.00;;;12.52;100.00
33404;BME280;19751;40.274;18.268;2023-02-20T08:01:59;102126.72;;;12.54;100.00
33404;BME280;19751;40.274;18.268;2023-02-20T08:04:24;102134.31;;;12.59;100.00
33404;BME280;19751;40.274;18.268;2023-02-20T08:06:50;102135.66;;;12.63;100.00
33404;BME280;19751;40.274;18.268;2023-02-20T08:09:15;102135.00;;;12.69;100.00
33404;BME280;19751;40.274;18.268;2023-02-20T08:11:41;102135.47;;;12.73;100.00
33404;BME280;19751;40.274;18.268;2023-02-20T08:14:06;102136.00;;;12.76;100.00
33404;BME280;19751;40.274;18.268;2023-02-20T08:16:32;102141.06;;;12.79;100.00
33404;BME280;19751;40.274;18.268;2023-02-20T08:18:58;102142.59;;;12.82;100.00
33404;BME280;19751;40.274;18.268;2023-02-20T08:21:24;102136.69;;;12.86;100.00
33404;BME280;19751;40.274;18.268;2023-02-20T08:23:49;102139.03;;;12.89;100.00
33404;BME280;19751;40.274;18.268;2023-02-20T08:26:17;102131.25;;;12.94;100.00
33404;BME280;19751;40.274;18.268;2023-02-20T08:28:43;102136.31;;;12.98;100.00
33404;BME280;19751;40.274;18.268;2023-02-20T08:31:10;102143.94;;;13.02;100.00
33404;BME280;19751;40.274;18.268;2023-02-20T08:33:35;102138.16;;;13.05;100.00
33404;BME280;19751;40.274;18.268;2023-02-20T08:36:01;102140.53;;;13.08;100.00
33404;BME280;19751;40.274;18.268;2023-02-20T08:38:29;102141.03;;;13.12;100.00
33404;BME280;19751;40.274;18.268;2023-02-20T08:40:56;102138.97;;;13.14;100.00
33404;BME280;19751;40.274;18.268;2023-02-20T08:43:22;102138.66;;;13.17;100.00
33404;BME280;19751;40.274;18.268;2023-02-20T08:45:47;102142.69;;;13.21;100.00
33404;BME280;19751;40.274;18.268;2023-02-20T08:48:13;102136.13;;;13.24;100.00
33404;BME280;19751;40.274;18.268;2023-02-20T08:50:39;102147.09;;;13.30;100.00
33404;BME280;19751;40.274;18.268;2023-02-20T08:53:05;102142.03;;;13.35;100.00
33404;BME280;19751;40.274;18.268;2023-02-20T08:55:30;102144.38;;;13.38;100.00
33404;BME280;19751;40.274;18.268;2023-02-20T08:57:56;102143.00;;;13.42;100.00
33404;BME280;19751;40.274;18.268;2023-02-20T09:00:22;102141.81;;;13.45;100.00
33404;BME280;19751;40.274;18.268;2023-02-20T09:02:47;102143.16;;;13.49;100.00
33404;BME280;19751;40.274;18.268;2023-02-20T09:05:14;102137.41;;;13.52;100.00
33404;BME280;19751;40.274;18.268;2023-02-20T09:07:39;102148.56;;;13.57;100.00
33404;BME280;19751;40.274;18.268;2023-02-20T09:10:05;102145.50;;;13.60;100.00
33404;BME280;19751;40.274;18.268;2023-02-20T09:12:31;102149.69;;;13.63;100.00
33404;BME280;19751;40.274;18.268;2023-02-20T09:14:57;102149.00;;;13.69;100.00
33404;BME280;19751;40.274;18.268;2023-02-20T09:17:27;102145.59;;;13.75;100.00
33404;BME280;19751;40.274;18.268;2023-02-20T09:19:53;102139.16;;;13.76;100.00
33404;BME280;19751;40.274;18.268;2023-02-20T09:22:25;102137.13;;;13.78;100.00
33404;BME280;19751;40.274;18.268;2023-02-20T09:24:52;102147.94;;;13.78;100.00
33404;BME280;19751;40.274;18.268;2023-02-20T09:27:19;102141.19;;;13.74;100.00
33404;BME280;19751;40.274;18.268;2023-02-20T09:29:45;102143.59;;;13.69;100.00
33404;BME280;19751;40.274;18.268;2023-02-20T09:32:12;102148.00;;;13.70;100.00
33404;BME280;19751;40.274;18.268;2023-02-20T09:34:38;102146.31;;;13.69;100.00
33404;BME280;19751;40.274;18.268;2023-02-20T09:37:04;102133.41;;;13.71;100.00
33404;BME280;19751;40.274;18.268;2023-02-20T09:39:30;102137.81;;;13.72;100.00
33404;BME280;19751;40.274;18.268;2023-02-20T09:45:21;102138.81;;;13.79;100.00
33404;BME280;19751;40.274;18.268;2023-02-20T09:50:43;102145.03;;;13.88;100.00
33404;BME280;19751;40.274;18.268;2023-02-20T09:55:58;102142.47;;;13.95;100.00
33404;BME280;19751;40.274;18.268;2023-02-20T09:58:42;102147.03;;;13.94;100.00
33404;BME280;19751;40.274;18.268;2023-02-20T10:01:10;102148.91;;;13.93;100.00
33404;BME280;19751;40.274;18.268;2023-02-20T10:03:48;102147.88;;;13.95;100.00
33404;BME280;19751;40.274;18.268;2023-02-20T10:06:19;102157.03;;;13.93;100.00
33404;BME280;19751;40.274;18.268;2023-02-20T10:08:48;102162.44;;;13.93;100.00
33404;BME280;19751;40.274;18.268;2023-02-20T10:11:25;102159.75;;;13.93;100.00
33404;BME280;19751;40.274;18.268;2023-02-20T10:14:35;102157.03;;;13.93;100.00
33404;BME280;19751;40.274;18.268;2023-02-20T10:19:59;102172.94;;;13.88;100.00
33404;BME280;19751;40.274;18.268;2023-02-20T10:22:38;102166.69;;;13.88;100.00
33404;BME280;19751;40.274;18.268;2023-02-20T10:28:02;102164.78;;;13.97;100.00
33404;BME280;19751;40.274;18.268;2023-02-20T10:30:41;102164.63;;;13.98;100.00
33404;BME280;19751;40.274;18.268;2023-02-20T10:35:42;102158.00;;;14.01;100.00
33404;BME280;19751;40.274;18.268;2023-02-20T10:38:12;102153.91;;;14.05;100.00
33404;BME280;19751;40.274;18.268;2023-02-20T10:43:54;102156.25;;;14.08;100.00
33404;BME280;19751;40.274;18.268;2023-02-20T10:48:21;102153.91;;;14.05;100.00
33404;BME280;19751;40.274;18.268;2023-02-20T10:56:24;102144.88;;;14.12;100.00
33404;BME280;19751;40.274;18.268;2023-02-20T10:58:54;102146.56;;;14.13;100.00
33404;BME280;19751;40.274;18.268;2023-02-20T11:01:24;102143.16;;;14.20;100.00
33404;BME280;19751;40.274;18.268;2023-02-20T11:04:03;102128.88;;;14.26;100.00
33404;BME280;19751;40.274;18.268;2023-02-20T11:06:39;102141.88;;;14.30;100.00
33404;BME280;19751;40.274;18.268;2023-02-20T11:09:06;102134.63;;;14.31;100.00
33404;BME280;19751;40.274;18.268;2023-02-20T11:11:38;102129.00;;;14.32;100.00
33404;BME280;19751;40.274;18.268;2023-02-20T11:14:31;102120.03;;;14.32;100.00
33404;BME280;19751;40.274;18.268;2023-02-20T11:17:21;102117.81;;;14.35;100.00
33404;BME280;19751;40.274;18.268;2023-02-20T11:19:54;102107.25;;;14.40;100.00
33404;BME280;19751;40.274;18.268;2023-02-20T11:22:43;102111.66;;;14.41;100.00
33404;BME280;19751;40.274;18.268;2023-02-20T11:25:16;102109.28;;;14.38;100.00
33404;BME280;19751;40.274;18.268;2023-02-20T11:27:46;102098.16;;;14.33;100.00
33404;BME280;19751;40.274;18.268;2023-02-20T11:32:48;102094.06;;;14.37;100.00
33404;BME280;19751;40.274;18.268;2023-02-20T11:37:50;102086.97;;;14.36;100.00
33404;BME280;19751;40.274;18.268;2023-02-20T11:40:36;102087.63;;;14.38;100.00
33404;BME280;19751;40.274;18.268;2023-02-20T11:43:34;102086.63;;;14.39;100.00
33404;BME280;19751;40.274;18.268;2023-02-20T11:46:20;102086.22;;;14.42;100.00
33404;BME280;19751;40.274;18.268;2023-02-20T11:49:07;102080.13;;;14.49;100.00
33404;BME280;19751;40.274;18.268;2023-02-20T11:51:37;102066.38;;;14.50;100.00
33404;BME280;19751;40.274;18.268;2023-02-20T11:54:09;102079.25;;;14.48;100.00
33404;BME280;19751;40.274;18.268;2023-02-20T11:56:35;102092.97;;;14.47;100.00
33404;BME280;19751;40.274;18.268;2023-02-20T11:59:36;102076.91;;;14.45;100.00
33404;BME280;19751;40.274;18.268;2023-02-20T12:04:36;102076.06;;;14.45;100.00
33404;BME280;19751;40.274;18.268;2023-02-20T12:07:31;102068.97;;;14.43;100.00
33404;BME280;19751;40.274;18.268;2023-02-20T12:12:37;102063.91;;;14.40;100.00
33404;BME280;19751;40.274;18.268;2023-02-20T12:15:11;102056.41;;;14.42;100.00
33404;BME280;19751;40.274;18.268;2023-02-20T12:17:49;102052.69;;;14.43;100.00
33404;BME280;19751;40.274;18.268;2023-02-20T12:20:20;102052.69;;;14.43;100.00
33404;BME280;19751;40.274;18.268;2023-02-20T12:28:38;102056.00;;;14.54;100.00
33404;BME280;19751;40.274;18.268;2023-02-20T12:31:24;102052.47;;;14.53;100.00
33404;BME280;19751;40.274;18.268;2023-02-20T12:36:54;102049.75;;;14.53;100.00
33404;BME280;19751;40.274;18.268;2023-02-20T12:39:38;102054.34;;;14.53;100.00
33404;BME280;19751;40.274;18.268;2023-02-20T12:45:13;102046.84;;;14.55;100.00
33404;BME280;19751;40.274;18.268;2023-02-20T12:47:43;102049.28;;;14.50;100.00
33404;BME280;19751;40.274;18.268;2023-02-20T12:50:18;102052.81;;;14.50;100.00
33404;BME280;19751;40.274;18.268;2023-02-20T12:53:08;102057.41;;;14.50;100.00
33404;BME280;19751;40.274;18.268;2023-02-20T12:55:52;102051.78;;;14.51;100.00
33404;BME280;19751;40.274;18.268;2023-02-20T12:58:57;102060.59;;;14.53;100.00
33404;BME280;19751;40.274;18.268;2023-02-20T13:01:23;102061.56;;;14.60;100.00
33404;BME280;19751;40.274;18.268;2023-02-20T13:06:45;102051.53;;;14.61;100.00
33404;BME280;19751;40.274;18.268;2023-02-20T13:09:24;102048.16;;;14.59;100.00
33404;BME280;19751;40.274;18.268;2023-02-20T13:11:56;102053.78;;;14.57;100.00
33404;BME280;19751;40.274;18.268;2023-02-20T13:14:33;102050.22;;;14.57;100.00
33404;BME280;19751;40.274;18.268;2023-02-20T13:22:01;102044.53;;;14.66;100.00
33404;BME280;19751;40.274;18.268;2023-02-20T13:24:32;102045.00;;;14.70;100.00
33404;BME280;19751;40.274;18.268;2023-02-20T13:27:00;102043.41;;;14.76;100.00
33404;BME280;19751;40.274;18.268;2023-02-20T13:32:24;102053.53;;;14.82;100.00
33404;BME280;19751;40.274;18.268;2023-02-20T13:34:51;102051.00;;;14.80;100.00
33404;BME280;19751;40.274;18.268;2023-02-20T13:37:50;102054.56;;;14.81;100.00
33404;BME280;19751;40.274;18.268;2023-02-20T13:40:33;102049.69;;;14.76;100.00
33404;BME280;19751;40.274;18.268;2023-02-20T13:45:41;102047.34;;;14.73;100.00
33404;BME280;19751;40.274;18.268;2023-02-20T13:56:22;102057.66;;;14.92;100.00
33404;BME280;19751;40.274;18.268;2023-02-20T13:58:50;102033.69;;;14.96;100.00
33404;BME280;19751;40.274;18.268;2023-02-20T14:01:16;102041.75;;;15.04;100.00
33404;BME280;19751;40.274;18.268;2023-02-20T14:03:42;102037.06;;;15.13;100.00
33404;BME280;19751;40.274;18.268;2023-02-20T14:06:10;102033.25;;;15.22;100.00
33404;BME280;19751;40.274;18.268;2023-02-20T14:08:41;102030.44;;;15.30;100.00
33404;BME280;19751;40.274;18.268;2023-02-20T14:11:26;102025.91;;;15.37;100.00
33404;BME280;19751;40.274;18.268;2023-02-20T14:13:55;102019.31;;;15.47;100.00
33404;BME280;19751;40.274;18.268;2023-02-20T14:16:35;102024.84;;;15.53;100.00
33404;BME280;19751;40.274;18.268;2023-02-20T14:19:20;102034.09;;;15.59;100.00
33404;BME280;19751;40.274;18.268;2023-02-20T14:21:47;102034.38;;;15.64;100.00
33404;BME280;19751;40.274;18.268;2023-02-20T14:24:24;102027.16;;;15.71;100.00